Thule Sermersua

KL  EN  DA
ASIAQ
Weather Now GREENLAND SURVEY
Updated [WGT/WGST] Temperature [°C] Wind [m/s] Air pressure [hPa] Relative humidity [%] Precipitation [mm]
Present Wind chill Speed Max
27.09 01:00-4,9-11,05,0 ⇖n/a95840n/a
27.09 00:00-6,4-13,35,7 ⇐n/a95841n/a
26.09 23:00-6,2-13,36,0 ⇐n/a95845n/a
26.09 22:00-7,5-15,46,7 ⇐n/a95850n/a
26.09 21:00-7,0-14,66,5 ⇐n/a95848n/a
26.09 20:00-6,7-14,36,7 ⇐n/a95747n/a
26.09 19:00-6,0-13,66,8 ⇐n/a95745n/a
26.09 18:00-5,3-12,15,9 ⇐n/a95744n/a
26.09 17:00-2,6-7,03,3 ⇖n/a95742n/a
26.09 16:00-2,2-6,33,2 ⇖n/a95739n/a
26.09 15:00-3,2-6,12,0 ⇙n/a95745n/a
26.09 14:00-3,40,00,7 ⇓n/a95739n/a
26.09 13:00-4,2-6,71,5 ⇐n/a95743n/a
26.09 12:00-5,7-9,12,0 ⇙n/a95848n/a
26.09 11:00-5,4-8,92,1 ⇐n/a95849n/a
26.09 10:00-5,8-9,42,1 ⇐n/a95852n/a
26.09 09:00-5,9-10,42,8 ⇐n/a95854n/a
26.09 08:00-5,6-10,12,8 ⇐n/a95853n/a
26.09 07:00-6,0-10,12,4 ⇖n/a95857n/a
26.09 06:00-5,6-9,02,0 ⇖n/a95861n/a
26.09 05:00-5,9-9,92,4 ⇖n/a95865n/a
26.09 04:00-6,7-9,81,7 ⇐n/a95869n/a
26.09 03:00-6,9-11,32,6 ⇐n/a95866n/a
26.09 02:00-7,1-11,92,9 ⇐n/a95966n/a
26.09 01:00-7,4-12,02,6 ⇐n/a95957n/a
Position: (76.3998,-68.2665)

[Back]